Boo Sonier — WDG3281 — position and weather

sailwx.info

Track history (hours):
 
Tides and Currents Weather Stations Pressure Air Temp Water Temp Dewpoint Dewpoint Depression Visibility Wind Speed Wind Dir Waves Ship Positions

Boo Sonier

Owner: LeBeouf Bros. Towing, LLC, Houma, LA. More information available from US FCC via Universal Licensing System and Coast Guard Vessel Documentation Center.

Last reported at 2015-Aug-03 06:09 UTC. Time now 2015-Aug-03 06:38 UTC.
Position N 29°56' W 089°60'.

Length 21 m.

Type: Tug. MMSI: 367524420.

Date/timePositionNaut miles runAvg speedWind from/ knotsBaromVisibWave heightAir tempDewpointWater temp
2015-Aug-03 06:09N 29°56' W 089°60'0 0.0
2015-Aug-03 05:18N 29°56' W 089°60'0 0.0
2015-Aug-03 04:33N 29°56' W 089°60'0 0.0
2015-Aug-03 01:12N 29°56' W 089°60'1 0.1
2015-Aug-02 08:20N 29°56' W 089°59'30 1.2
2015-Aug-01 06:31N 29°34' W 090°23'4 4.3
2015-Aug-01 05:30N 29°33' W 090°28'5 5.1
2015-Aug-01 04:29N 29°34' W 090°34'5 4.9
2015-Aug-01 03:33N 29°36' W 090°39'3 2.8
2015-Aug-01 02:33N 29°37' W 090°42'4 4.2
2015-Aug-01 01:33N 29°33' W 090°45'5 4.6
2015-Aug-01 00:31N 29°32' W 090°50'1 0.0
2015-Jul-30 06:10N 29°32' W 090°51'4 5.9
2015-Jul-30 05:31N 29°32' W 090°47'4 4.5
2015-Jul-30 04:34N 29°35' W 090°43'4 3.5
2015-Jul-30 03:34N 29°36' W 090°39'3 2.9
2015-Jul-30 02:30N 29°35' W 090°36'0 0.1
2015-Jul-30 01:33N 29°35' W 090°36'2 2.4
2015-Jul-30 00:29N 29°34' W 090°33'37 1.8
2015-Jul-29 04:16N 29°59' W 090°01'  
2015-Jul-25 03:12N 30°00' W 089°58'1 1.3
2015-Jul-25 02:27N 29°60' W 089°59'2 1.5
2015-Jul-25 01:20N 29°59' W 090°01'  
Track history (hours):
 
Tides and Currents Weather Stations Pressure Air Temp Water Temp Dewpoint Dewpoint Depression Visibility Wind Speed Wind Dir Waves Ship Positions

Boo Sonier

Owner: LeBeouf Bros. Towing, LLC, Houma, LA. More information available from US FCC via Universal Licensing System and Coast Guard Vessel Documentation Center.

Last reported at 2015-Aug-03 06:09 UTC. Time now 2015-Aug-03 06:38 UTC.
Position N 29°56' W 089°60'.

Length 21 m.

Type: Tug. MMSI: 367524420.

Date/timePositionNaut miles runAvg speedWind from/ knotsBaromVisibWave heightAir tempDewpointWater temp
2015-Aug-03 06:09N 29°56' W 089°60'0 0.0
2015-Aug-03 05:18N 29°56' W 089°60'0 0.0
2015-Aug-03 04:33N 29°56' W 089°60'0 0.0
2015-Aug-03 01:12N 29°56' W 089°60'1 0.1
2015-Aug-02 08:20N 29°56' W 089°59'30 1.2
2015-Aug-01 06:31N 29°34' W 090°23'4 4.3
2015-Aug-01 05:30N 29°33' W 090°28'5 5.1
2015-Aug-01 04:29N 29°34' W 090°34'5 4.9
2015-Aug-01 03:33N 29°36' W 090°39'3 2.8
2015-Aug-01 02:33N 29°37' W 090°42'4 4.2
2015-Aug-01 01:33N 29°33' W 090°45'5 4.6
2015-Aug-01 00:31N 29°32' W 090°50'1 0.0
2015-Jul-30 06:10N 29°32' W 090°51'4 5.9
2015-Jul-30 05:31N 29°32' W 090°47'4 4.5
2015-Jul-30 04:34N 29°35' W 090°43'4 3.5
2015-Jul-30 03:34N 29°36' W 090°39'3 2.9
2015-Jul-30 02:30N 29°35' W 090°36'0 0.1
2015-Jul-30 01:33N 29°35' W 090°36'2 2.4
2015-Jul-30 00:29N 29°34' W 090°33'37 1.8
2015-Jul-29 04:16N 29°59' W 090°01'  
2015-Jul-25 03:12N 30°00' W 089°58'1 1.3
2015-Jul-25 02:27N 29°60' W 089°59'2 1.5
2015-Jul-25 01:20N 29°59' W 090°01'  

Dump ship's entire track history